Queen Of Cowichan — CZ4990 — position and weather

sailwx.info

Track history (hours):
 
Tides and Currents Weather Stations Pressure Air Temp Water Temp Dewpoint Dewpoint Depression Visibility Wind Speed Wind Dir Waves Ship Positions

Queen Of Cowichan

Last reported at 2017-Aug-19 07:29 UTC. Time now 2017-Aug-19 07:38 UTC.
Position N 49°12' W 123°57'.

Length 139 m.

Type: Passenger vessel. MMSI: 316001251.

Date/timePositionNaut miles runAvg speedWind from/ knotsBaromVisibWave heightAir tempDewpointWater temp
2017-Aug-19 07:29N 49°12' W 123°57'0 0.0
2017-Aug-19 06:59N 49°12' W 123°57'0 0.0
2017-Aug-19 06:26N 49°12' W 123°57'0 0.0
2017-Aug-19 05:59N 49°12' W 123°57'0 0.0
2017-Aug-19 05:26N 49°12' W 123°57'0 0.0
2017-Aug-19 04:59N 49°12' W 123°57'0 0.0
2017-Aug-19 04:29N 49°12' W 123°57'0 0.0
2017-Aug-19 03:53N 49°12' W 123°57'3 9.0
2017-Aug-19 03:30N 49°14' W 123°53'1019.8
2017-Aug-19 03:00N 49°17' W 123°39'1019.9
2017-Aug-19 02:30N 49°19' W 123°24'611.9
2017-Aug-19 02:01N 49°23' W 123°16'0 0.0
2017-Aug-19 01:31N 49°23' W 123°16'713.5
2017-Aug-19 01:01N 49°18' W 123°24'1020.4
2017-Aug-19 00:30N 49°16' W 123°40'1020.1
2017-Aug-19 00:01N 49°13' W 123°54'2 4.7
2017-Aug-18 23:29N 49°12' W 123°57'3 5.3
2017-Aug-18 23:01N 49°13' W 123°54'1020.1
2017-Aug-18 22:30N 49°17' W 123°40'1020.1
2017-Aug-18 22:01N 49°18' W 123°25'713.8
2017-Aug-18 21:30N 49°23' W 123°16'0 0.0
2017-Aug-18 21:00N 49°23' W 123°16'510.6
2017-Aug-18 20:30N 49°19' W 123°22'1020.1
2017-Aug-18 20:00N 49°16' W 123°37'1019.8
2017-Aug-18 19:30N 49°14' W 123°52'4 8.3
2017-Aug-18 19:00N 49°12' W 123°57'1 1.6
2017-Aug-18 18:30N 49°12' W 123°57'1020.1
2017-Aug-18 18:00N 49°17' W 123°43'1020.3
2017-Aug-18 17:30N 49°19' W 123°28'917.2
2017-Aug-18 17:01N 49°23' W 123°16'1 1.0
2017-Aug-18 16:30N 49°23' W 123°16'510.7
2017-Aug-18 16:01N 49°19' W 123°23'1020.1
2017-Aug-18 15:31N 49°16' W 123°38'1020.2
2017-Aug-18 15:01N 49°14' W 123°52'4 7.5
2017-Aug-18 14:30N 49°12' W 123°57'0 0.0
2017-Aug-18 13:30N 49°12' W 123°57'0 0.0
2017-Aug-18 13:00N 49°12' W 123°57'0 0.0
2017-Aug-18 12:30N 49°12' W 123°57'0 0.0
2017-Aug-18 11:57N 49°12' W 123°57'0 0.0
2017-Aug-18 11:27N 49°12' W 123°57'0 0.0
2017-Aug-18 10:57N 49°12' W 123°57'0 0.0
2017-Aug-18 10:21N 49°12' W 123°57'0 0.0
2017-Aug-18 09:57N 49°12' W 123°57'0 0.0
2017-Aug-18 09:30N 49°12' W 123°57'0 0.0
2017-Aug-18 08:57N 49°12' W 123°57'0 0.0
2017-Aug-18 08:30N 49°12' W 123°57'0 0.0
2017-Aug-18 07:57N 49°12' W 123°57'0 0.0
2017-Aug-18 07:30N 49°12' W 123°57'0 0.0
2017-Aug-18 06:51N 49°12' W 123°57'0 0.0
2017-Aug-18 06:27N 49°12' W 123°57'0 0.0
2017-Aug-18 05:57N 49°12' W 123°57'0 0.0
2017-Aug-18 05:30N 49°12' W 123°57'0 0.0
2017-Aug-18 04:54N 49°12' W 123°57'0 0.0
2017-Aug-18 04:27N 49°12' W 123°57'0 0.0
2017-Aug-18 03:45N 49°12' W 123°57'2 9.1
2017-Aug-18 03:30N 49°13' W 123°55'1019.9
2017-Aug-18 03:01N 49°17' W 123°41'1020.1
2017-Aug-18 02:31N 49°19' W 123°25'713.9
2017-Aug-18 02:00N 49°23' W 123°16'0 0.0
2017-Aug-18 01:30N 49°23' W 123°16'713.3
2017-Aug-18 01:00N 49°18' W 123°24'1020.4
2017-Aug-18 00:30N 49°16' W 123°39'1020.4
2017-Aug-18 00:00N 49°13' W 123°54'2 4.8
2017-Aug-17 23:30N 49°12' W 123°57'3 5.4
2017-Aug-17 23:00N 49°13' W 123°54'1019.8
2017-Aug-17 22:30N 49°17' W 123°40'1019.8
2017-Aug-17 22:00N 49°19' W 123°25'713.5
2017-Aug-17 21:30N 49°23' W 123°16'0 0.0
2017-Aug-17 21:00N 49°23' W 123°16'612.1
2017-Aug-17 20:30N 49°19' W 123°24'1020.2
2017-Aug-17 20:00N 49°16' W 123°38'1020.0
2017-Aug-17 19:31N 49°14' W 123°53'3 6.5
2017-Aug-17 19:00N 49°12' W 123°57'0 0.5
2017-Aug-17 18:30N 49°12' W 123°57'1019.1
2017-Aug-17 18:00N 49°16' W 123°44'1020.3
2017-Aug-17 17:31N 49°18' W 123°29'918.6
2017-Aug-17 17:01N 49°23' W 123°17'1 1.5
2017-Aug-17 16:30N 49°23' W 123°16'5 9.8
2017-Aug-17 16:00N 49°19' W 123°22'1020.5
2017-Aug-17 15:31N 49°16' W 123°37'1020.7
2017-Aug-17 15:00N 49°14' W 123°52'4 7.8
2017-Aug-17 14:30N 49°12' W 123°57'0 0.0
2017-Aug-17 14:00N 49°12' W 123°57'0 0.0
2017-Aug-17 13:28N 49°12' W 123°57'0 0.0
2017-Aug-17 12:55N 49°12' W 123°57'0 0.0
2017-Aug-17 12:28N 49°12' W 123°57'0 0.0
2017-Aug-17 11:58N 49°12' W 123°57'0 0.0
2017-Aug-17 11:28N 49°12' W 123°57'0 0.0
2017-Aug-17 10:58N 49°12' W 123°57'0 0.0
2017-Aug-17 10:28N 49°12' W 123°57'0 0.0
2017-Aug-17 09:58N 49°12' W 123°57'0 0.0
2017-Aug-17 09:28N 49°12' W 123°57'0 0.0
2017-Aug-17 08:58N 49°12' W 123°57'0 0.0
2017-Aug-17 08:25N 49°12' W 123°57'0 0.0
2017-Aug-17 07:55N 49°12' W 123°57'0 0.0
2017-Aug-17 07:28N 49°12' W 123°57'0 0.0
2017-Aug-17 06:58N 49°12' W 123°57'0 0.0
2017-Aug-17 06:28N 49°12' W 123°57'0 0.0
2017-Aug-17 05:58N 49°12' W 123°57'0 0.0
2017-Aug-17 05:28N 49°12' W 123°57'0 0.0
2017-Aug-17 04:58N 49°12' W 123°57'0 0.0
2017-Aug-17 04:25N 49°12' W 123°57'0 0.0
2017-Aug-17 03:59N 49°12' W 123°57'4 8.4
2017-Aug-17 03:31N 49°14' W 123°52'1020.3
2017-Aug-17 03:01N 49°19' W 123°39'1019.4
2017-Aug-17 02:31N 49°23' W 123°25'611.9
2017-Aug-17 02:00N 49°23' W 123°16'0 0.0
2017-Aug-17 01:30N 49°23' W 123°16'612.1
2017-Aug-17 01:00N 49°18' W 123°23'1020.5
2017-Aug-17 00:30N 49°16' W 123°38'1020.6
2017-Aug-17 00:01N 49°14' W 123°53'3 6.6
2017-Aug-16 23:30N 49°12' W 123°57'2 4.0
2017-Aug-16 23:00N 49°13' W 123°55'1019.7
2017-Aug-16 22:30N 49°17' W 123°41'1019.9
2017-Aug-16 22:01N 49°19' W 123°27'815.1
2017-Aug-16 21:30N 49°23' W 123°16'0 0.0
2017-Aug-16 21:00N 49°23' W 123°16'510.7
2017-Aug-16 20:30N 49°19' W 123°22'1020.3
2017-Aug-16 20:00N 49°16' W 123°37'1020.2
2017-Aug-16 19:31N 49°14' W 123°52'4 7.5
2017-Aug-16 18:59N 49°12' W 123°57'0 0.0
2017-Aug-16 18:29N 49°12' W 123°57'0 0.0
2017-Aug-16 17:59N 49°12' W 123°57'0 0.0
2017-Aug-16 17:29N 49°12' W 123°57'0 0.0
2017-Aug-16 16:59N 49°12' W 123°57'0 0.0
2017-Aug-16 16:26N 49°12' W 123°57'0 0.0
2017-Aug-16 15:59N 49°12' W 123°57'0 0.0
2017-Aug-16 15:29N 49°12' W 123°57'0 0.0
2017-Aug-16 14:53N 49°12' W 123°57'0 0.0
2017-Aug-16 14:29N 49°12' W 123°57'0 0.0
2017-Aug-16 13:56N 49°12' W 123°57'0 0.0
2017-Aug-16 13:26N 49°12' W 123°57'0 0.0
2017-Aug-16 12:50N 49°12' W 123°57'0 0.0
2017-Aug-16 12:20N 49°12' W 123°57'0 0.0
2017-Aug-16 11:59N 49°12' W 123°57'0 0.0
2017-Aug-16 11:29N 49°12' W 123°57'0 0.0
2017-Aug-16 10:50N 49°12' W 123°57'0 0.0
2017-Aug-16 10:26N 49°12' W 123°57'0 0.0
2017-Aug-16 09:59N 49°12' W 123°57'0 0.0
2017-Aug-16 09:29N 49°12' W 123°57'0 0.0
2017-Aug-16 08:59N 49°12' W 123°57'0 0.0
2017-Aug-16 08:29N 49°12' W 123°57'0 0.0
2017-Aug-16 07:59N 49°12' W 123°57'0 0.0
2017-Aug-16 07:29N 49°12' W 123°57'0 0.0
2017-Aug-16 06:59N 49°12' W 123°57'0 0.0
2017-Aug-16 06:29N 49°12' W 123°57'0 0.0
2017-Aug-16 05:59N 49°12' W 123°57'0 0.0
2017-Aug-16 05:29N 49°12' W 123°57'0 0.0
2017-Aug-16 04:59N 49°12' W 123°57'0 0.0
2017-Aug-16 04:26N 49°12' W 123°57'0 0.0
2017-Aug-16 03:50N 49°12' W 123°57'1 4.5
2017-Aug-16 03:30N 49°13' W 123°55'1019.9
2017-Aug-16 03:00N 49°17' W 123°42'1020.2
2017-Aug-16 02:30N 49°19' W 123°27'815.3
2017-Aug-16 02:00N 49°23' W 123°16'0 0.0
2017-Aug-16 01:30N 49°23' W 123°16'612.0
2017-Aug-16 01:00N 49°19' W 123°23'1020.4
2017-Aug-16 00:30N 49°16' W 123°38'1020.6
2017-Aug-16 00:01N 49°13' W 123°54'3 6.0
2017-Aug-15 23:30N 49°12' W 123°57'1 2.9
2017-Aug-15 23:00N 49°13' W 123°56'1019.8
2017-Aug-15 22:30N 49°17' W 123°42'1019.9
2017-Aug-15 22:00N 49°19' W 123°27'815.7
2017-Aug-15 21:30N 49°23' W 123°16'0 0.0
2017-Aug-15 21:00N 49°23' W 123°16'510.0
2017-Aug-15 20:31N 49°19' W 123°22'1020.5
2017-Aug-15 20:01N 49°16' W 123°36'1020.5
2017-Aug-15 19:31N 49°14' W 123°52'4 6.8
2017-Aug-15 18:55N 49°12' W 123°57'0 0.0
2017-Aug-15 18:28N 49°12' W 123°57'0 0.0
2017-Aug-15 17:58N 49°12' W 123°57'0 0.0
2017-Aug-15 17:28N 49°12' W 123°57'0 0.0
2017-Aug-15 16:58N 49°12' W 123°57'0 0.0
2017-Aug-15 16:28N 49°12' W 123°57'0 0.0
2017-Aug-15 15:58N 49°12' W 123°57'0 0.0
2017-Aug-15 15:28N 49°12' W 123°57'0 0.0
2017-Aug-15 14:58N 49°12' W 123°57'0 0.0
2017-Aug-15 14:13N 49°12' W 123°57'0 0.0
2017-Aug-15 13:58N 49°12' W 123°57'0 0.0
2017-Aug-15 13:28N 49°12' W 123°57'0 0.0
2017-Aug-15 12:58N 49°12' W 123°57'0 0.0
2017-Aug-15 12:28N 49°12' W 123°57'0 0.0
2017-Aug-15 11:58N 49°12' W 123°57'0 0.0
2017-Aug-15 11:28N 49°12' W 123°57'0 0.0
2017-Aug-15 10:58N 49°12' W 123°57'0 0.0
2017-Aug-15 10:28N 49°12' W 123°57'0 0.0
2017-Aug-15 09:58N 49°12' W 123°57'0 0.0
2017-Aug-15 09:22N 49°12' W 123°57'0 0.0
2017-Aug-15 08:58N 49°12' W 123°57'0 0.0
2017-Aug-15 08:28N 49°12' W 123°57'0 0.0
2017-Aug-15 07:58N 49°12' W 123°57'0 0.0
2017-Aug-15 07:22N 49°12' W 123°57'0 0.0
2017-Aug-15 06:58N 49°12' W 123°57'0 0.0
2017-Aug-15 06:28N 49°12' W 123°57'0 0.0
2017-Aug-15 05:58N 49°12' W 123°57'0 0.0
2017-Aug-15 05:28N 49°12' W 123°57'0 0.0
2017-Aug-15 04:58N 49°12' W 123°57'0 0.0
2017-Aug-15 04:28N 49°12' W 123°57'0 0.0
2017-Aug-15 03:58N 49°12' W 123°57'4 9.3
2017-Aug-15 03:30N 49°14' W 123°52'1020.4
2017-Aug-15 03:00N 49°18' W 123°37'1020.1
2017-Aug-15 02:30N 49°19' W 123°22'510.0
2017-Aug-15 02:00N 49°23' W 123°16'0 0.0
2017-Aug-15 01:30N 49°23' W 123°16'714.1
2017-Aug-15 01:00N 49°18' W 123°24'1020.5
2017-Aug-15 00:30N 49°16' W 123°40'1020.4
2017-Aug-15 00:00N 49°13' W 123°55'2 4.3
2017-Aug-14 23:30N 49°12' W 123°57'1 2.6
2017-Aug-14 23:01N 49°13' W 123°56'1019.9
2017-Aug-14 22:30N 49°16' W 123°42'1019.8
2017-Aug-14 22:01N 49°19' W 123°27'816.1
2017-Aug-14 21:30N 49°23' W 123°16'0 0.0
2017-Aug-14 21:00N 49°23' W 123°16'5 9.5
2017-Aug-14 20:30N 49°19' W 123°22'1020.6
2017-Aug-14 20:00N 49°16' W 123°37'1020.8
2017-Aug-14 19:30N 49°14' W 123°52'4 7.8
2017-Aug-14 19:00N 49°12' W 123°57'0 0.8
2017-Aug-14 18:31N 49°12' W 123°57'1019.1
2017-Aug-14 18:00N 49°16' W 123°44'1020.0
2017-Aug-14 17:30N 49°18' W 123°29'919.0
2017-Aug-14 17:01N 49°23' W 123°17'1 1.1
2017-Aug-14 16:30N 49°23' W 123°16'611.2
2017-Aug-14 16:01N 49°19' W 123°23'1020.2
2017-Aug-14 15:31N 49°16' W 123°38'1020.3
2017-Aug-14 15:01N 49°14' W 123°53'4 7.1
2017-Aug-14 14:30N 49°12' W 123°57'0 0.0
2017-Aug-14 13:59N 49°12' W 123°57'0 0.0
2017-Aug-14 13:29N 49°12' W 123°57'0 0.0
2017-Aug-14 12:59N 49°12' W 123°57'0 0.0
2017-Aug-14 12:29N 49°12' W 123°57'0 0.0
2017-Aug-14 11:59N 49°12' W 123°57'0 0.0
2017-Aug-14 11:29N 49°12' W 123°57'0 0.0
2017-Aug-14 10:56N 49°12' W 123°57'0 0.0
2017-Aug-14 10:29N 49°12' W 123°57'0 0.0
2017-Aug-14 09:59N 49°12' W 123°57'0 0.0
2017-Aug-14 09:29N 49°12' W 123°57'0 0.0
2017-Aug-14 08:59N 49°12' W 123°57'0 0.0
2017-Aug-14 08:29N 49°12' W 123°57'1 1.5
2017-Aug-14 08:01N 49°12' W 123°57'1019.5
2017-Aug-14 07:30N 49°16' W 123°43'1019.8
2017-Aug-14 07:01N 49°18' W 123°28'917.9
2017-Aug-14 06:30N 49°23' W 123°16'0 0.1
2017-Aug-14 06:00N 49°23' W 123°16'815.9
2017-Aug-14 05:30N 49°18' W 123°26'1020.9
2017-Aug-14 05:00N 49°15' W 123°42'1020.5
2017-Aug-14 04:30N 49°12' W 123°57'1 1.4
2017-Aug-14 04:00N 49°12' W 123°57'4 7.1
2017-Aug-14 03:30N 49°14' W 123°53'1019.6
2017-Aug-14 03:00N 49°17' W 123°39'1019.8
2017-Aug-14 02:30N 49°19' W 123°24'612.1
2017-Aug-14 02:00N 49°23' W 123°16'0 0.0
2017-Aug-14 01:31N 49°23' W 123°16'713.1
2017-Aug-14 01:00N 49°19' W 123°24'1020.5
2017-Aug-14 00:30N 49°16' W 123°39'1020.0
2017-Aug-14 00:00N 49°13' W 123°54'3 5.0
2017-Aug-13 23:30N 49°12' W 123°57'2 3.8
2017-Aug-13 23:01N 49°13' W 123°55'1020.5
2017-Aug-13 22:31N 49°17' W 123°40'1019.9
2017-Aug-13 22:01N 49°19' W 123°26'714.0
2017-Aug-13 21:31N 49°23' W 123°16'0 0.0
2017-Aug-13 21:01N 49°23' W 123°16'612.0
2017-Aug-13 20:30N 49°19' W 123°23'1020.8
2017-Aug-13 20:00N 49°16' W 123°39'1020.8
2017-Aug-13 19:30N 49°13' W 123°54'3 5.2
2017-Aug-13 19:01N 49°12' W 123°57'0 0.0
2017-Aug-13 18:30N 49°12' W 123°57'0 0.0
2017-Aug-13 18:00N 49°12' W 123°57'0 0.0
2017-Aug-13 17:29N 49°12' W 123°57'0 0.0
2017-Aug-13 16:59N 49°12' W 123°57'0 0.0
2017-Aug-13 16:20N 49°12' W 123°57'0 0.0
2017-Aug-13 15:59N 49°12' W 123°57'0 0.0
2017-Aug-13 15:26N 49°12' W 123°57'0 0.0
2017-Aug-13 14:50N 49°12' W 123°57'0 0.0
2017-Aug-13 14:26N 49°12' W 123°57'0 0.0
2017-Aug-13 13:50N 49°12' W 123°57'0 0.0
2017-Aug-13 13:23N 49°12' W 123°57'0 0.0
2017-Aug-13 12:50N 49°12' W 123°57'0 0.0
2017-Aug-13 12:26N 49°12' W 123°57'0 0.0
2017-Aug-13 11:56N 49°12' W 123°57'0 0.0
2017-Aug-13 11:26N 49°12' W 123°57'0 0.0
2017-Aug-13 10:59N 49°12' W 123°57'0 0.0
2017-Aug-13 10:29N 49°12' W 123°57'0 0.0
2017-Aug-13 09:56N 49°12' W 123°57'0 0.0
2017-Aug-13 09:29N 49°12' W 123°57'0 0.0
2017-Aug-13 08:56N 49°12' W 123°57'0 0.0
2017-Aug-13 08:26N 49°12' W 123°57'0 0.0
2017-Aug-13 07:56N 49°12' W 123°57'0 0.0
2017-Aug-13 07:29N 49°12' W 123°57'0 0.0
2017-Aug-13 06:53N 49°12' W 123°57'0 0.0
2017-Aug-13 06:20N 49°12' W 123°57'0 0.0
2017-Aug-13 05:56N 49°12' W 123°57'0 0.0
2017-Aug-13 05:26N 49°12' W 123°57'0 0.0
2017-Aug-13 04:56N 49°12' W 123°57'0 0.0
2017-Aug-13 04:26N 49°12' W 123°57'0 0.0
2017-Aug-13 03:59N 49°12' W 123°57'0 0.0
2017-Aug-13 03:20N 49°12' W 123°57'0 0.0
2017-Aug-13 02:56N 49°12' W 123°57'0 0.0
2017-Aug-13 02:08N 49°12' W 123°57'0 0.0
2017-Aug-13 01:59N 49°12' W 123°57'0 0.0
2017-Aug-13 01:26N 49°12' W 123°57'0 0.0
2017-Aug-13 00:56N 49°12' W 123°57'0 0.0
2017-Aug-13 00:29N 49°12' W 123°57'0 0.0
2017-Aug-12 23:44N 49°12' W 123°57'0 0.0
2017-Aug-12 23:26N 49°12' W 123°57'2 5.6
2017-Aug-12 23:01N 49°13' W 123°54'1019.9
2017-Aug-12 22:30N 49°17' W 123°40'1019.9
2017-Aug-12 22:01N 49°19' W 123°25'713.6
2017-Aug-12 21:30N 49°23' W 123°16'0 0.0
2017-Aug-12 21:00N 49°23' W 123°16'612.3
2017-Aug-12 20:30N 49°19' W 123°24'1020.1
2017-Aug-12 20:00N 49°16' W 123°39'1020.0
2017-Aug-12 19:30N 49°14' W 123°53'3 6.4
2017-Aug-12 19:00N 49°12' W 123°57'1 2.6
2017-Aug-12 18:31N 49°13' W 123°56'1019.6
2017-Aug-12 18:00N 49°17' W 123°42'1020.1
2017-Aug-12 17:30N 49°19' W 123°27'816.2
2017-Aug-12 17:00N 49°23' W 123°16'0 0.0
2017-Aug-12 16:30N 49°23' W 123°16'612.2
2017-Aug-12 16:01N 49°19' W 123°24'1020.1
2017-Aug-12 15:31N 49°16' W 123°39'1020.3
2017-Aug-12 15:01N 49°13' W 123°54'3 5.8
2017-Aug-12 14:29N 49°12' W 123°57'0 0.0
2017-Aug-12 13:53N 49°12' W 123°57'0 0.0
2017-Aug-12 13:29N 49°12' W 123°57'0 0.0
2017-Aug-12 12:59N 49°12' W 123°57'0 0.0
2017-Aug-12 12:29N 49°12' W 123°57'0 0.0
2017-Aug-12 11:59N 49°12' W 123°57'0 0.0
2017-Aug-12 11:26N 49°12' W 123°57'0 0.0
2017-Aug-12 10:59N 49°12' W 123°57'0 0.0
2017-Aug-12 10:26N 49°12' W 123°57'0 0.0
2017-Aug-12 09:59N 49°12' W 123°57'0 0.0
2017-Aug-12 09:29N 49°12' W 123°57'0 0.0
2017-Aug-12 08:59N 49°12' W 123°57'0 0.0
2017-Aug-12 08:29N 49°12' W 123°57'0 0.0
2017-Aug-12 07:59N 49°12' W 123°57'0 0.0
2017-Aug-12 07:29N 49°12' W 123°57'0 0.0
2017-Aug-12 06:56N 49°12' W 123°57'0 0.0
2017-Aug-12 06:26N 49°12' W 123°57'0 0.0
2017-Aug-12 05:56N 49°12' W 123°57'0 0.0
2017-Aug-12 05:26N 49°12' W 123°57'0 0.0
2017-Aug-12 04:59N 49°12' W 123°57'0 0.0
2017-Aug-12 04:26N 49°12' W 123°57'0 0.0
2017-Aug-12 03:59N 49°12' W 123°57'510.5
2017-Aug-12 03:30N 49°14' W 123°51'1019.4
2017-Aug-12 03:00N 49°17' W 123°37'1019.8
2017-Aug-12 02:31N 49°20' W 123°22'5 9.5
2017-Aug-12 02:00N 49°23' W 123°16'0 0.7
2017-Aug-12 01:30N 49°23' W 123°16'917.5
2017-Aug-12 01:01N 49°18' W 123°27'1020.6
2017-Aug-12 00:31N 49°15' W 123°42'1019.9
2017-Aug-12 00:00N 49°12' W 123°57'1 1.3
2017-Aug-11 23:30N 49°12' W 123°57'3 6.0
2017-Aug-11 23:00N 49°13' W 123°54'1019.9
2017-Aug-11 22:30N 49°17' W 123°39'1019.8
2017-Aug-11 22:00N 49°19' W 123°24'612.9
2017-Aug-11 21:30N 49°23' W 123°16'0 0.0
2017-Aug-11 21:00N 49°23' W 123°16'510.7
2017-Aug-11 20:30N 49°19' W 123°23'1020.6
2017-Aug-11 20:00N 49°16' W 123°38'1020.8
2017-Aug-11 19:30N 49°14' W 123°53'3 6.7
2017-Aug-11 19:00N 49°12' W 123°57'1 1.4
2017-Aug-11 18:30N 49°12' W 123°57'1019.3
2017-Aug-11 18:00N 49°16' W 123°43'1019.6
2017-Aug-11 17:30N 49°19' W 123°29'918.2
2017-Aug-11 17:00N 49°23' W 123°16'0 0.5
2017-Aug-11 16:30N 49°23' W 123°16'4 8.1
2017-Aug-11 16:01N 49°20' W 123°21'1020.5
2017-Aug-11 15:30N 49°17' W 123°36'1121.0
2017-Aug-11 15:00N 49°14' W 123°51'4 8.9
2017-Aug-11 14:30N 49°12' W 123°57'0 0.0
2017-Aug-11 13:27N 49°12' W 123°57'0 0.0
2017-Aug-11 13:00N 49°12' W 123°57'0 0.0
2017-Aug-11 12:27N 49°12' W 123°57'0 0.0
2017-Aug-11 11:57N 49°12' W 123°57'0 0.0
2017-Aug-11 11:27N 49°12' W 123°57'0 0.0
2017-Aug-11 10:54N 49°12' W 123°57'0 0.0
2017-Aug-11 10:27N 49°12' W 123°57'0 0.0
2017-Aug-11 09:57N 49°12' W 123°57'0 0.0
2017-Aug-11 09:27N 49°12' W 123°57'0 0.0
2017-Aug-11 08:54N 49°12' W 123°57'0 0.0
2017-Aug-11 08:30N 49°12' W 123°57'0 0.0
2017-Aug-11 07:57N 49°12' W 123°57'0 0.0
2017-Aug-11 07:27N 49°12' W 123°57'0 0.0
2017-Aug-11 07:00N 49°12' W 123°57'0 0.0
2017-Aug-11 06:24N 49°12' W 123°57'0 0.0
2017-Aug-11 05:48N 49°12' W 123°57'0 0.0
2017-Aug-11 05:30N 49°12' W 123°57'0 0.0
2017-Aug-11 04:30N 49°12' W 123°57'0 0.6
2017-Aug-11 04:00N 49°12' W 123°57'714.4
2017-Aug-11 03:30N 49°15' W 123°47'1020.0
2017-Aug-11 03:00N 49°18' W 123°33'1019.5
2017-Aug-11 02:30N 49°22' W 123°19'2 3.7
2017-Aug-11 02:01N 49°23' W 123°16'0 0.8
2017-Aug-11 01:31N 49°23' W 123°16'918.2
2017-Aug-11 01:00N 49°18' W 123°28'1020.8
2017-Aug-11 00:30N 49°15' W 123°43'1019.3
2017-Aug-11 00:00N 49°12' W 123°57'0 0.2
2017-Aug-10 23:30N 49°12' W 123°57'4 7.5
2017-Aug-10 23:01N 49°14' W 123°53'1019.7
2017-Aug-10 22:31N 49°17' W 123°39'1019.9
2017-Aug-10 22:01N 49°19' W 123°24'611.5
2017-Aug-10 21:30N 49°23' W 123°16'0 0.0
2017-Aug-10 21:00N 49°23' W 123°16'611.9
2017-Aug-10 20:30N 49°19' W 123°23'1020.8
2017-Aug-10 20:00N 49°15' W 123°38'1020.9
2017-Aug-10 19:30N 49°13' W 123°54'3 5.5
2017-Aug-10 19:00N 49°12' W 123°57'1 1.3
2017-Aug-10 18:31N 49°12' W 123°57'1019.4
2017-Aug-10 18:01N 49°16' W 123°43'1019.6
2017-Aug-10 17:31N 49°19' W 123°29'918.4
2017-Aug-10 17:01N 49°23' W 123°16'0 0.6
2017-Aug-10 16:30N 49°23' W 123°16'4 8.1
2017-Aug-10 16:00N 49°20' W 123°21'1020.4
2017-Aug-10 15:30N 49°16' W 123°36'1021.0
2017-Aug-10 15:00N 49°14' W 123°51'4 8.9
2017-Aug-10 14:30N 49°12' W 123°57'0 0.0
2017-Aug-10 14:00N 49°12' W 123°57'0 0.0
2017-Aug-10 13:28N 49°12' W 123°57'0 0.0
2017-Aug-10 12:58N 49°12' W 123°57'0 0.0
2017-Aug-10 12:28N 49°12' W 123°57'0 0.0
2017-Aug-10 11:58N 49°12' W 123°57'0 0.0
2017-Aug-10 11:28N 49°12' W 123°57'0 0.0
2017-Aug-10 10:58N 49°12' W 123°57'0 0.0
2017-Aug-10 10:28N 49°12' W 123°57'0 0.0
2017-Aug-10 09:58N 49°12' W 123°57'0 0.0
2017-Aug-10 09:28N 49°12' W 123°57'0 0.0
2017-Aug-10 08:58N 49°12' W 123°57'0 0.0
2017-Aug-10 08:28N 49°12' W 123°57'0 0.0
2017-Aug-10 07:58N 49°12' W 123°57'0 0.0
2017-Aug-10 07:28N 49°12' W 123°57'0 0.0
2017-Aug-10 06:58N 49°12' W 123°57'0 0.0
2017-Aug-10 06:28N 49°12' W 123°57'0 0.0
2017-Aug-10 05:58N 49°12' W 123°57'0 0.0
2017-Aug-10 05:28N 49°12' W 123°57'0 0.0
2017-Aug-10 04:58N 49°12' W 123°57'0 0.0
2017-Aug-10 04:28N 49°12' W 123°57'0 0.0
2017-Aug-10 03:58N 49°12' W 123°57'2 4.8
2017-Aug-10 03:30N 49°13' W 123°55'1019.7
2017-Aug-10 03:00N 49°17' W 123°40'1020.2
2017-Aug-10 02:30N 49°19' W 123°26'7 7.3
2017-Aug-10 01:32N 49°23' W 123°16'0 7.2
2017-Aug-10 01:30N 49°23' W 123°16'917.2
2017-Aug-10 01:00N 49°18' W 123°27'1020.7
2017-Aug-10 00:31N 49°15' W 123°42'10 8.3
2017-Aug-09 23:17N 49°12' W 123°57'619.0
2017-Aug-09 22:58N 49°15' W 123°49'919.6
2017-Aug-09 22:30N 49°18' W 123°36'1020.0
2017-Aug-09 22:00N 49°20' W 123°21'4 3.9
2017-Aug-09 20:59N 49°23' W 123°16'714.1
2017-Aug-09 20:31N 49°18' W 123°24'1020.6
2017-Aug-09 20:00N 49°15' W 123°40'1220.5
2017-Aug-09 19:26N 49°12' W 123°57'  
Track history (hours):
 
Tides and Currents Weather Stations Pressure Air Temp Water Temp Dewpoint Dewpoint Depression Visibility Wind Speed Wind Dir Waves Ship Positions

Queen Of Cowichan

Last reported at 2017-Aug-19 07:29 UTC. Time now 2017-Aug-19 07:38 UTC.
Position N 49°12' W 123°57'.

Length 139 m.

Type: Passenger vessel. MMSI: 316001251.

Date/timePositionNaut miles runAvg speedWind from/ knotsBaromVisibWave heightAir tempDewpointWater temp
2017-Aug-19 07:29N 49°12' W 123°57'0 0.0
2017-Aug-19 06:59N 49°12' W 123°57'0 0.0
2017-Aug-19 06:26N 49°12' W 123°57'0 0.0
2017-Aug-19 05:59N 49°12' W 123°57'0 0.0
2017-Aug-19 05:26N 49°12' W 123°57'0 0.0
2017-Aug-19 04:59N 49°12' W 123°57'0 0.0
2017-Aug-19 04:29N 49°12' W 123°57'0 0.0
2017-Aug-19 03:53N 49°12' W 123°57'3 9.0
2017-Aug-19 03:30N 49°14' W 123°53'1019.8
2017-Aug-19 03:00N 49°17' W 123°39'1019.9
2017-Aug-19 02:30N 49°19' W 123°24'611.9
2017-Aug-19 02:01N 49°23' W 123°16'0 0.0
2017-Aug-19 01:31N 49°23' W 123°16'713.5
2017-Aug-19 01:01N 49°18' W 123°24'1020.4
2017-Aug-19 00:30N 49°16' W 123°40'1020.1
2017-Aug-19 00:01N 49°13' W 123°54'2 4.7
2017-Aug-18 23:29N 49°12' W 123°57'3 5.3
2017-Aug-18 23:01N 49°13' W 123°54'1020.1
2017-Aug-18 22:30N 49°17' W 123°40'1020.1
2017-Aug-18 22:01N 49°18' W 123°25'713.8
2017-Aug-18 21:30N 49°23' W 123°16'0 0.0
2017-Aug-18 21:00N 49°23' W 123°16'510.6
2017-Aug-18 20:30N 49°19' W 123°22'1020.1
2017-Aug-18 20:00N 49°16' W 123°37'1019.8
2017-Aug-18 19:30N 49°14' W 123°52'4 8.3
2017-Aug-18 19:00N 49°12' W 123°57'1 1.6
2017-Aug-18 18:30N 49°12' W 123°57'1020.1
2017-Aug-18 18:00N 49°17' W 123°43'1020.3
2017-Aug-18 17:30N 49°19' W 123°28'917.2
2017-Aug-18 17:01N 49°23' W 123°16'1 1.0
2017-Aug-18 16:30N 49°23' W 123°16'510.7
2017-Aug-18 16:01N 49°19' W 123°23'1020.1
2017-Aug-18 15:31N 49°16' W 123°38'1020.2
2017-Aug-18 15:01N 49°14' W 123°52'4 7.5
2017-Aug-18 14:30N 49°12' W 123°57'0 0.0
2017-Aug-18 13:30N 49°12' W 123°57'0 0.0
2017-Aug-18 13:00N 49°12' W 123°57'0 0.0
2017-Aug-18 12:30N 49°12' W 123°57'0 0.0
2017-Aug-18 11:57N 49°12' W 123°57'0 0.0
2017-Aug-18 11:27N 49°12' W 123°57'0 0.0
2017-Aug-18 10:57N 49°12' W 123°57'0 0.0
2017-Aug-18 10:21N 49°12' W 123°57'0 0.0
2017-Aug-18 09:57N 49°12' W 123°57'0 0.0
2017-Aug-18 09:30N 49°12' W 123°57'0 0.0
2017-Aug-18 08:57N 49°12' W 123°57'0 0.0
2017-Aug-18 08:30N 49°12' W 123°57'0 0.0
2017-Aug-18 07:57N 49°12' W 123°57'0 0.0
2017-Aug-18 07:30N 49°12' W 123°57'0 0.0
2017-Aug-18 06:51N 49°12' W 123°57'0 0.0
2017-Aug-18 06:27N 49°12' W 123°57'0 0.0
2017-Aug-18 05:57N 49°12' W 123°57'0 0.0
2017-Aug-18 05:30N 49°12' W 123°57'0 0.0
2017-Aug-18 04:54N 49°12' W 123°57'0 0.0
2017-Aug-18 04:27N 49°12' W 123°57'0 0.0
2017-Aug-18 03:45N 49°12' W 123°57'2 9.1
2017-Aug-18 03:30N 49°13' W 123°55'1019.9
2017-Aug-18 03:01N 49°17' W 123°41'1020.1
2017-Aug-18 02:31N 49°19' W 123°25'713.9
2017-Aug-18 02:00N 49°23' W 123°16'0 0.0
2017-Aug-18 01:30N 49°23' W 123°16'713.3
2017-Aug-18 01:00N 49°18' W 123°24'1020.4
2017-Aug-18 00:30N 49°16' W 123°39'1020.4
2017-Aug-18 00:00N 49°13' W 123°54'2 4.8
2017-Aug-17 23:30N 49°12' W 123°57'3 5.4
2017-Aug-17 23:00N 49°13' W 123°54'1019.8
2017-Aug-17 22:30N 49°17' W 123°40'1019.8
2017-Aug-17 22:00N 49°19' W 123°25'713.5
2017-Aug-17 21:30N 49°23' W 123°16'0 0.0
2017-Aug-17 21:00N 49°23' W 123°16'612.1
2017-Aug-17 20:30N 49°19' W 123°24'1020.2
2017-Aug-17 20:00N 49°16' W 123°38'1020.0
2017-Aug-17 19:31N 49°14' W 123°53'3 6.5
2017-Aug-17 19:00N 49°12' W 123°57'0 0.5
2017-Aug-17 18:30N 49°12' W 123°57'1019.1
2017-Aug-17 18:00N 49°16' W 123°44'1020.3
2017-Aug-17 17:31N 49°18' W 123°29'918.6
2017-Aug-17 17:01N 49°23' W 123°17'1 1.5
2017-Aug-17 16:30N 49°23' W 123°16'5 9.8
2017-Aug-17 16:00N 49°19' W 123°22'1020.5
2017-Aug-17 15:31N 49°16' W 123°37'1020.7
2017-Aug-17 15:00N 49°14' W 123°52'4 7.8
2017-Aug-17 14:30N 49°12' W 123°57'0 0.0
2017-Aug-17 14:00N 49°12' W 123°57'0 0.0
2017-Aug-17 13:28N 49°12' W 123°57'0 0.0
2017-Aug-17 12:55N 49°12' W 123°57'0 0.0
2017-Aug-17 12:28N 49°12' W 123°57'0 0.0
2017-Aug-17 11:58N 49°12' W 123°57'0 0.0
2017-Aug-17 11:28N 49°12' W 123°57'0 0.0
2017-Aug-17 10:58N 49°12' W 123°57'0 0.0
2017-Aug-17 10:28N 49°12' W 123°57'0 0.0
2017-Aug-17 09:58N 49°12' W 123°57'0 0.0
2017-Aug-17 09:28N 49°12' W 123°57'0 0.0
2017-Aug-17 08:58N 49°12' W 123°57'0 0.0
2017-Aug-17 08:25N 49°12' W 123°57'0 0.0
2017-Aug-17 07:55N 49°12' W 123°57'0 0.0
2017-Aug-17 07:28N 49°12' W 123°57'0 0.0
2017-Aug-17 06:58N 49°12' W 123°57'0 0.0
2017-Aug-17 06:28N 49°12' W 123°57'0 0.0
2017-Aug-17 05:58N 49°12' W 123°57'0 0.0
2017-Aug-17 05:28N 49°12' W 123°57'0 0.0
2017-Aug-17 04:58N 49°12' W 123°57'0 0.0
2017-Aug-17 04:25N 49°12' W 123°57'0 0.0
2017-Aug-17 03:59N 49°12' W 123°57'4 8.4
2017-Aug-17 03:31N 49°14' W 123°52'1020.3
2017-Aug-17 03:01N 49°19' W 123°39'1019.4
2017-Aug-17 02:31N 49°23' W 123°25'611.9
2017-Aug-17 02:00N 49°23' W 123°16'0 0.0
2017-Aug-17 01:30N 49°23' W 123°16'612.1
2017-Aug-17 01:00N 49°18' W 123°23'1020.5
2017-Aug-17 00:30N 49°16' W 123°38'1020.6
2017-Aug-17 00:01N 49°14' W 123°53'3 6.6
2017-Aug-16 23:30N 49°12' W 123°57'2 4.0
2017-Aug-16 23:00N 49°13' W 123°55'1019.7
2017-Aug-16 22:30N 49°17' W 123°41'1019.9
2017-Aug-16 22:01N 49°19' W 123°27'815.1
2017-Aug-16 21:30N 49°23' W 123°16'0 0.0
2017-Aug-16 21:00N 49°23' W 123°16'510.7
2017-Aug-16 20:30N 49°19' W 123°22'1020.3
2017-Aug-16 20:00N 49°16' W 123°37'1020.2
2017-Aug-16 19:31N 49°14' W 123°52'4 7.5
2017-Aug-16 18:59N 49°12' W 123°57'0 0.0
2017-Aug-16 18:29N 49°12' W 123°57'0 0.0
2017-Aug-16 17:59N 49°12' W 123°57'0 0.0
2017-Aug-16 17:29N 49°12' W 123°57'0 0.0
2017-Aug-16 16:59N 49°12' W 123°57'0 0.0
2017-Aug-16 16:26N 49°12' W 123°57'0 0.0
2017-Aug-16 15:59N 49°12' W 123°57'0 0.0
2017-Aug-16 15:29N 49°12' W 123°57'0 0.0
2017-Aug-16 14:53N 49°12' W 123°57'0 0.0
2017-Aug-16 14:29N 49°12' W 123°57'0 0.0
2017-Aug-16 13:56N 49°12' W 123°57'0 0.0
2017-Aug-16 13:26N 49°12' W 123°57'0 0.0
2017-Aug-16 12:50N 49°12' W 123°57'0 0.0
2017-Aug-16 12:20N 49°12' W 123°57'0 0.0
2017-Aug-16 11:59N 49°12' W 123°57'0 0.0
2017-Aug-16 11:29N 49°12' W 123°57'0 0.0
2017-Aug-16 10:50N 49°12' W 123°57'0 0.0
2017-Aug-16 10:26N 49°12' W 123°57'0 0.0
2017-Aug-16 09:59N 49°12' W 123°57'0 0.0
2017-Aug-16 09:29N 49°12' W 123°57'0 0.0
2017-Aug-16 08:59N 49°12' W 123°57'0 0.0
2017-Aug-16 08:29N 49°12' W 123°57'0 0.0
2017-Aug-16 07:59N 49°12' W 123°57'0 0.0
2017-Aug-16 07:29N 49°12' W 123°57'0 0.0
2017-Aug-16 06:59N 49°12' W 123°57'0 0.0
2017-Aug-16 06:29N 49°12' W 123°57'0 0.0
2017-Aug-16 05:59N 49°12' W 123°57'0 0.0
2017-Aug-16 05:29N 49°12' W 123°57'0 0.0
2017-Aug-16 04:59N 49°12' W 123°57'0 0.0
2017-Aug-16 04:26N 49°12' W 123°57'0 0.0
2017-Aug-16 03:50N 49°12' W 123°57'1 4.5
2017-Aug-16 03:30N 49°13' W 123°55'1019.9
2017-Aug-16 03:00N 49°17' W 123°42'1020.2
2017-Aug-16 02:30N 49°19' W 123°27'815.3
2017-Aug-16 02:00N 49°23' W 123°16'0 0.0
2017-Aug-16 01:30N 49°23' W 123°16'612.0
2017-Aug-16 01:00N 49°19' W 123°23'1020.4
2017-Aug-16 00:30N 49°16' W 123°38'1020.6
2017-Aug-16 00:01N 49°13' W 123°54'3 6.0
2017-Aug-15 23:30N 49°12' W 123°57'1 2.9
2017-Aug-15 23:00N 49°13' W 123°56'1019.8
2017-Aug-15 22:30N 49°17' W 123°42'1019.9
2017-Aug-15 22:00N 49°19' W 123°27'815.7
2017-Aug-15 21:30N 49°23' W 123°16'0 0.0
2017-Aug-15 21:00N 49°23' W 123°16'510.0
2017-Aug-15 20:31N 49°19' W 123°22'1020.5
2017-Aug-15 20:01N 49°16' W 123°36'1020.5
2017-Aug-15 19:31N 49°14' W 123°52'4 6.8
2017-Aug-15 18:55N 49°12' W 123°57'0 0.0
2017-Aug-15 18:28N 49°12' W 123°57'0 0.0
2017-Aug-15 17:58N 49°12' W 123°57'0 0.0
2017-Aug-15 17:28N 49°12' W 123°57'0 0.0
2017-Aug-15 16:58N 49°12' W 123°57'0 0.0
2017-Aug-15 16:28N 49°12' W 123°57'0 0.0
2017-Aug-15 15:58N 49°12' W 123°57'0 0.0
2017-Aug-15 15:28N 49°12' W 123°57'0 0.0
2017-Aug-15 14:58N 49°12' W 123°57'0 0.0
2017-Aug-15 14:13N 49°12' W 123°57'0 0.0
2017-Aug-15 13:58N 49°12' W 123°57'0 0.0
2017-Aug-15 13:28N 49°12' W 123°57'0 0.0
2017-Aug-15 12:58N 49°12' W 123°57'0 0.0
2017-Aug-15 12:28N 49°12' W 123°57'0 0.0
2017-Aug-15 11:58N 49°12' W 123°57'0 0.0
2017-Aug-15 11:28N 49°12' W 123°57'0 0.0
2017-Aug-15 10:58N 49°12' W 123°57'0 0.0
2017-Aug-15 10:28N 49°12' W 123°57'0 0.0
2017-Aug-15 09:58N 49°12' W 123°57'0 0.0
2017-Aug-15 09:22N 49°12' W 123°57'0 0.0
2017-Aug-15 08:58N 49°12' W 123°57'0 0.0
2017-Aug-15 08:28N 49°12' W 123°57'0 0.0
2017-Aug-15 07:58N 49°12' W 123°57'0 0.0
2017-Aug-15 07:22N 49°12' W 123°57'0 0.0
2017-Aug-15 06:58N 49°12' W 123°57'0 0.0
2017-Aug-15 06:28N 49°12' W 123°57'0 0.0
2017-Aug-15 05:58N 49°12' W 123°57'0 0.0
2017-Aug-15 05:28N 49°12' W 123°57'0 0.0
2017-Aug-15 04:58N 49°12' W 123°57'0 0.0
2017-Aug-15 04:28N 49°12' W 123°57'0 0.0
2017-Aug-15 03:58N 49°12' W 123°57'4 9.3
2017-Aug-15 03:30N 49°14' W 123°52'1020.4
2017-Aug-15 03:00N 49°18' W 123°37'1020.1
2017-Aug-15 02:30N 49°19' W 123°22'510.0
2017-Aug-15 02:00N 49°23' W 123°16'0 0.0
2017-Aug-15 01:30N 49°23' W 123°16'714.1
2017-Aug-15 01:00N 49°18' W 123°24'1020.5
2017-Aug-15 00:30N 49°16' W 123°40'1020.4
2017-Aug-15 00:00N 49°13' W 123°55'2 4.3
2017-Aug-14 23:30N 49°12' W 123°57'1 2.6
2017-Aug-14 23:01N 49°13' W 123°56'1019.9
2017-Aug-14 22:30N 49°16' W 123°42'1019.8
2017-Aug-14 22:01N 49°19' W 123°27'816.1
2017-Aug-14 21:30N 49°23' W 123°16'0 0.0
2017-Aug-14 21:00N 49°23' W 123°16'5 9.5
2017-Aug-14 20:30N 49°19' W 123°22'1020.6
2017-Aug-14 20:00N 49°16' W 123°37'1020.8
2017-Aug-14 19:30N 49°14' W 123°52'4 7.8
2017-Aug-14 19:00N 49°12' W 123°57'0 0.8
2017-Aug-14 18:31N 49°12' W 123°57'1019.1
2017-Aug-14 18:00N 49°16' W 123°44'1020.0
2017-Aug-14 17:30N 49°18' W 123°29'919.0
2017-Aug-14 17:01N 49°23' W 123°17'1 1.1
2017-Aug-14 16:30N 49°23' W 123°16'611.2
2017-Aug-14 16:01N 49°19' W 123°23'1020.2
2017-Aug-14 15:31N 49°16' W 123°38'1020.3
2017-Aug-14 15:01N 49°14' W 123°53'4 7.1
2017-Aug-14 14:30N 49°12' W 123°57'0 0.0
2017-Aug-14 13:59N 49°12' W 123°57'0 0.0
2017-Aug-14 13:29N 49°12' W 123°57'0 0.0
2017-Aug-14 12:59N 49°12' W 123°57'0 0.0
2017-Aug-14 12:29N 49°12' W 123°57'0 0.0
2017-Aug-14 11:59N 49°12' W 123°57'0 0.0
2017-Aug-14 11:29N 49°12' W 123°57'0 0.0
2017-Aug-14 10:56N 49°12' W 123°57'0 0.0
2017-Aug-14 10:29N 49°12' W 123°57'0 0.0
2017-Aug-14 09:59N 49°12' W 123°57'0 0.0
2017-Aug-14 09:29N 49°12' W 123°57'0 0.0
2017-Aug-14 08:59N 49°12' W 123°57'0 0.0
2017-Aug-14 08:29N 49°12' W 123°57'1 1.5
2017-Aug-14 08:01N 49°12' W 123°57'1019.5
2017-Aug-14 07:30N 49°16' W 123°43'1019.8
2017-Aug-14 07:01N 49°18' W 123°28'917.9
2017-Aug-14 06:30N 49°23' W 123°16'0 0.1
2017-Aug-14 06:00N 49°23' W 123°16'815.9
2017-Aug-14 05:30N 49°18' W 123°26'1020.9
2017-Aug-14 05:00N 49°15' W 123°42'1020.5
2017-Aug-14 04:30N 49°12' W 123°57'1 1.4
2017-Aug-14 04:00N 49°12' W 123°57'4 7.1
2017-Aug-14 03:30N 49°14' W 123°53'1019.6
2017-Aug-14 03:00N 49°17' W 123°39'1019.8
2017-Aug-14 02:30N 49°19' W 123°24'612.1
2017-Aug-14 02:00N 49°23' W 123°16'0 0.0
2017-Aug-14 01:31N 49°23' W 123°16'713.1
2017-Aug-14 01:00N 49°19' W 123°24'1020.5
2017-Aug-14 00:30N 49°16' W 123°39'1020.0
2017-Aug-14 00:00N 49°13' W 123°54'3 5.0
2017-Aug-13 23:30N 49°12' W 123°57'2 3.8
2017-Aug-13 23:01N 49°13' W 123°55'1020.5
2017-Aug-13 22:31N 49°17' W 123°40'1019.9
2017-Aug-13 22:01N 49°19' W 123°26'714.0
2017-Aug-13 21:31N 49°23' W 123°16'0 0.0
2017-Aug-13 21:01N 49°23' W 123°16'612.0
2017-Aug-13 20:30N 49°19' W 123°23'1020.8
2017-Aug-13 20:00N 49°16' W 123°39'1020.8
2017-Aug-13 19:30N 49°13' W 123°54'3 5.2
2017-Aug-13 19:01N 49°12' W 123°57'0 0.0
2017-Aug-13 18:30N 49°12' W 123°57'0 0.0
2017-Aug-13 18:00N 49°12' W 123°57'0 0.0
2017-Aug-13 17:29N 49°12' W 123°57'0 0.0
2017-Aug-13 16:59N 49°12' W 123°57'0 0.0
2017-Aug-13 16:20N 49°12' W 123°57'0 0.0
2017-Aug-13 15:59N 49°12' W 123°57'0 0.0
2017-Aug-13 15:26N 49°12' W 123°57'0 0.0
2017-Aug-13 14:50N 49°12' W 123°57'0 0.0
2017-Aug-13 14:26N 49°12' W 123°57'0 0.0
2017-Aug-13 13:50N 49°12' W 123°57'0 0.0
2017-Aug-13 13:23N 49°12' W 123°57'0 0.0
2017-Aug-13 12:50N 49°12' W 123°57'0 0.0
2017-Aug-13 12:26N 49°12' W 123°57'0 0.0
2017-Aug-13 11:56N 49°12' W 123°57'0 0.0
2017-Aug-13 11:26N 49°12' W 123°57'0 0.0
2017-Aug-13 10:59N 49°12' W 123°57'0 0.0
2017-Aug-13 10:29N 49°12' W 123°57'0 0.0
2017-Aug-13 09:56N 49°12' W 123°57'0 0.0
2017-Aug-13 09:29N 49°12' W 123°57'0 0.0
2017-Aug-13 08:56N 49°12' W 123°57'0 0.0
2017-Aug-13 08:26N 49°12' W 123°57'0 0.0
2017-Aug-13 07:56N 49°12' W 123°57'0 0.0
2017-Aug-13 07:29N 49°12' W 123°57'0 0.0
2017-Aug-13 06:53N 49°12' W 123°57'0 0.0
2017-Aug-13 06:20N 49°12' W 123°57'0 0.0
2017-Aug-13 05:56N 49°12' W 123°57'0 0.0
2017-Aug-13 05:26N 49°12' W 123°57'0 0.0
2017-Aug-13 04:56N 49°12' W 123°57'0 0.0
2017-Aug-13 04:26N 49°12' W 123°57'0 0.0
2017-Aug-13 03:59N 49°12' W 123°57'0 0.0
2017-Aug-13 03:20N 49°12' W 123°57'0 0.0
2017-Aug-13 02:56N 49°12' W 123°57'0 0.0
2017-Aug-13 02:08N 49°12' W 123°57'0 0.0
2017-Aug-13 01:59N 49°12' W 123°57'0 0.0
2017-Aug-13 01:26N 49°12' W 123°57'0 0.0
2017-Aug-13 00:56N 49°12' W 123°57'0 0.0
2017-Aug-13 00:29N 49°12' W 123°57'0 0.0
2017-Aug-12 23:44N 49°12' W 123°57'0 0.0
2017-Aug-12 23:26N 49°12' W 123°57'2 5.6
2017-Aug-12 23:01N 49°13' W 123°54'1019.9
2017-Aug-12 22:30N 49°17' W 123°40'1019.9
2017-Aug-12 22:01N 49°19' W 123°25'713.6
2017-Aug-12 21:30N 49°23' W 123°16'0 0.0
2017-Aug-12 21:00N 49°23' W 123°16'612.3
2017-Aug-12 20:30N 49°19' W 123°24'1020.1
2017-Aug-12 20:00N 49°16' W 123°39'1020.0
2017-Aug-12 19:30N 49°14' W 123°53'3 6.4
2017-Aug-12 19:00N 49°12' W 123°57'1 2.6
2017-Aug-12 18:31N 49°13' W 123°56'1019.6
2017-Aug-12 18:00N 49°17' W 123°42'1020.1
2017-Aug-12 17:30N 49°19' W 123°27'816.2
2017-Aug-12 17:00N 49°23' W 123°16'0 0.0
2017-Aug-12 16:30N 49°23' W 123°16'612.2
2017-Aug-12 16:01N 49°19' W 123°24'1020.1
2017-Aug-12 15:31N 49°16' W 123°39'1020.3
2017-Aug-12 15:01N 49°13' W 123°54'3 5.8
2017-Aug-12 14:29N 49°12' W 123°57'0 0.0
2017-Aug-12 13:53N 49°12' W 123°57'0 0.0
2017-Aug-12 13:29N 49°12' W 123°57'0 0.0
2017-Aug-12 12:59N 49°12' W 123°57'0 0.0
2017-Aug-12 12:29N 49°12' W 123°57'0 0.0
2017-Aug-12 11:59N 49°12' W 123°57'0 0.0
2017-Aug-12 11:26N 49°12' W 123°57'0 0.0
2017-Aug-12 10:59N 49°12' W 123°57'0 0.0
2017-Aug-12 10:26N 49°12' W 123°57'0 0.0
2017-Aug-12 09:59N 49°12' W 123°57'0 0.0
2017-Aug-12 09:29N 49°12' W 123°57'0 0.0
2017-Aug-12 08:59N 49°12' W 123°57'0 0.0
2017-Aug-12 08:29N 49°12' W 123°57'0 0.0
2017-Aug-12 07:59N 49°12' W 123°57'0 0.0
2017-Aug-12 07:29N 49°12' W 123°57'0 0.0
2017-Aug-12 06:56N 49°12' W 123°57'0 0.0
2017-Aug-12 06:26N 49°12' W 123°57'0 0.0
2017-Aug-12 05:56N 49°12' W 123°57'0 0.0
2017-Aug-12 05:26N 49°12' W 123°57'0 0.0
2017-Aug-12 04:59N 49°12' W 123°57'0 0.0
2017-Aug-12 04:26N 49°12' W 123°57'0 0.0
2017-Aug-12 03:59N 49°12' W 123°57'510.5
2017-Aug-12 03:30N 49°14' W 123°51'1019.4
2017-Aug-12 03:00N 49°17' W 123°37'1019.8
2017-Aug-12 02:31N 49°20' W 123°22'5 9.5
2017-Aug-12 02:00N 49°23' W 123°16'0 0.7
2017-Aug-12 01:30N 49°23' W 123°16'917.5
2017-Aug-12 01:01N 49°18' W 123°27'1020.6
2017-Aug-12 00:31N 49°15' W 123°42'1019.9
2017-Aug-12 00:00N 49°12' W 123°57'1 1.3
2017-Aug-11 23:30N 49°12' W 123°57'3 6.0
2017-Aug-11 23:00N 49°13' W 123°54'1019.9
2017-Aug-11 22:30N 49°17' W 123°39'1019.8
2017-Aug-11 22:00N 49°19' W 123°24'612.9
2017-Aug-11 21:30N 49°23' W 123°16'0 0.0
2017-Aug-11 21:00N 49°23' W 123°16'510.7
2017-Aug-11 20:30N 49°19' W 123°23'1020.6
2017-Aug-11 20:00N 49°16' W 123°38'1020.8
2017-Aug-11 19:30N 49°14' W 123°53'3 6.7
2017-Aug-11 19:00N 49°12' W 123°57'1 1.4
2017-Aug-11 18:30N 49°12' W 123°57'1019.3
2017-Aug-11 18:00N 49°16' W 123°43'1019.6
2017-Aug-11 17:30N 49°19' W 123°29'918.2
2017-Aug-11 17:00N 49°23' W 123°16'0 0.5
2017-Aug-11 16:30N 49°23' W 123°16'4 8.1
2017-Aug-11 16:01N 49°20' W 123°21'1020.5
2017-Aug-11 15:30N 49°17' W 123°36'1121.0
2017-Aug-11 15:00N 49°14' W 123°51'4 8.9
2017-Aug-11 14:30N 49°12' W 123°57'0 0.0
2017-Aug-11 13:27N 49°12' W 123°57'0 0.0
2017-Aug-11 13:00N 49°12' W 123°57'0 0.0
2017-Aug-11 12:27N 49°12' W 123°57'0 0.0
2017-Aug-11 11:57N 49°12' W 123°57'0 0.0
2017-Aug-11 11:27N 49°12' W 123°57'0 0.0
2017-Aug-11 10:54N 49°12' W 123°57'0 0.0
2017-Aug-11 10:27N 49°12' W 123°57'0 0.0
2017-Aug-11 09:57N 49°12' W 123°57'0 0.0
2017-Aug-11 09:27N 49°12' W 123°57'0 0.0
2017-Aug-11 08:54N 49°12' W 123°57'0 0.0
2017-Aug-11 08:30N 49°12' W 123°57'0 0.0
2017-Aug-11 07:57N 49°12' W 123°57'0 0.0
2017-Aug-11 07:27N 49°12' W 123°57'0 0.0
2017-Aug-11 07:00N 49°12' W 123°57'0 0.0
2017-Aug-11 06:24N 49°12' W 123°57'0 0.0
2017-Aug-11 05:48N 49°12' W 123°57'0 0.0
2017-Aug-11 05:30N 49°12' W 123°57'0 0.0
2017-Aug-11 04:30N 49°12' W 123°57'0 0.6
2017-Aug-11 04:00N 49°12' W 123°57'714.4
2017-Aug-11 03:30N 49°15' W 123°47'1020.0
2017-Aug-11 03:00N 49°18' W 123°33'1019.5
2017-Aug-11 02:30N 49°22' W 123°19'2 3.7
2017-Aug-11 02:01N 49°23' W 123°16'0 0.8
2017-Aug-11 01:31N 49°23' W 123°16'918.2
2017-Aug-11 01:00N 49°18' W 123°28'1020.8
2017-Aug-11 00:30N 49°15' W 123°43'1019.3
2017-Aug-11 00:00N 49°12' W 123°57'0 0.2
2017-Aug-10 23:30N 49°12' W 123°57'4 7.5
2017-Aug-10 23:01N 49°14' W 123°53'1019.7
2017-Aug-10 22:31N 49°17' W 123°39'1019.9
2017-Aug-10 22:01N 49°19' W 123°24'611.5
2017-Aug-10 21:30N 49°23' W 123°16'0 0.0
2017-Aug-10 21:00N 49°23' W 123°16'611.9
2017-Aug-10 20:30N 49°19' W 123°23'1020.8
2017-Aug-10 20:00N 49°15' W 123°38'1020.9
2017-Aug-10 19:30N 49°13' W 123°54'3 5.5
2017-Aug-10 19:00N 49°12' W 123°57'1 1.3
2017-Aug-10 18:31N 49°12' W 123°57'1019.4
2017-Aug-10 18:01N 49°16' W 123°43'1019.6
2017-Aug-10 17:31N 49°19' W 123°29'918.4
2017-Aug-10 17:01N 49°23' W 123°16'0 0.6
2017-Aug-10 16:30N 49°23' W 123°16'4 8.1
2017-Aug-10 16:00N 49°20' W 123°21'1020.4
2017-Aug-10 15:30N 49°16' W 123°36'1021.0
2017-Aug-10 15:00N 49°14' W 123°51'4 8.9
2017-Aug-10 14:30N 49°12' W 123°57'0 0.0
2017-Aug-10 14:00N 49°12' W 123°57'0 0.0
2017-Aug-10 13:28N 49°12' W 123°57'0 0.0
2017-Aug-10 12:58N 49°12' W 123°57'0 0.0
2017-Aug-10 12:28N 49°12' W 123°57'0 0.0
2017-Aug-10 11:58N 49°12' W 123°57'0 0.0
2017-Aug-10 11:28N 49°12' W 123°57'0 0.0
2017-Aug-10 10:58N 49°12' W 123°57'0 0.0
2017-Aug-10 10:28N 49°12' W 123°57'0 0.0
2017-Aug-10 09:58N 49°12' W 123°57'0 0.0
2017-Aug-10 09:28N 49°12' W 123°57'0 0.0
2017-Aug-10 08:58N 49°12' W 123°57'0 0.0
2017-Aug-10 08:28N 49°12' W 123°57'0 0.0
2017-Aug-10 07:58N 49°12' W 123°57'0 0.0
2017-Aug-10 07:28N 49°12' W 123°57'0 0.0
2017-Aug-10 06:58N 49°12' W 123°57'0 0.0
2017-Aug-10 06:28N 49°12' W 123°57'0 0.0
2017-Aug-10 05:58N 49°12' W 123°57'0 0.0
2017-Aug-10 05:28N 49°12' W 123°57'0 0.0
2017-Aug-10 04:58N 49°12' W 123°57'0 0.0
2017-Aug-10 04:28N 49°12' W 123°57'0 0.0
2017-Aug-10 03:58N 49°12' W 123°57'2 4.8
2017-Aug-10 03:30N 49°13' W 123°55'1019.7
2017-Aug-10 03:00N 49°17' W 123°40'1020.2
2017-Aug-10 02:30N 49°19' W 123°26'7 7.3
2017-Aug-10 01:32N 49°23' W 123°16'0 7.2
2017-Aug-10 01:30N 49°23' W 123°16'917.2
2017-Aug-10 01:00N 49°18' W 123°27'1020.7
2017-Aug-10 00:31N 49°15' W 123°42'10 8.3
2017-Aug-09 23:17N 49°12' W 123°57'619.0
2017-Aug-09 22:58N 49°15' W 123°49'919.6
2017-Aug-09 22:30N 49°18' W 123°36'1020.0
2017-Aug-09 22:00N 49°20' W 123°21'4 3.9
2017-Aug-09 20:59N 49°23' W 123°16'714.1
2017-Aug-09 20:31N 49°18' W 123°24'1020.6
2017-Aug-09 20:00N 49°15' W 123°40'1220.5
2017-Aug-09 19:26N 49°12' W 123°57'  

Dump ship's entire track history